createdAt,value
2022-10-17T00:01:48.221Z,61.03
2022-10-17T00:04:16.736Z,59.13
2022-10-17T00:06:45.000Z,61.80
2022-10-17T00:09:13.278Z,60.70
2022-10-17T00:11:42.977Z,57.00
2022-10-17T00:14:11.337Z,59.53
2022-10-17T00:16:39.663Z,58.37
2022-10-17T00:19:08.675Z,56.80
2022-10-17T00:21:36.996Z,57.33
2022-10-17T00:24:05.835Z,58.20
2022-10-17T00:26:34.488Z,55.47
2022-10-17T00:29:04.438Z,57.87
2022-10-17T00:31:32.787Z,57.77
2022-10-17T00:34:01.080Z,61.17
2022-10-17T00:36:29.663Z,62.27
2022-10-17T00:39:00.057Z,59.20
2022-10-17T00:41:31.608Z,59.80
2022-10-17T00:46:54.804Z,62.83
2022-10-17T00:49:25.819Z,61.77
2022-10-17T00:51:57.544Z,57.53
2022-10-17T00:54:30.046Z,61.00
2022-10-17T00:56:58.451Z,57.90
2022-10-17T00:59:27.339Z,60.37
2022-10-17T01:02:03.177Z,56.53
2022-10-17T01:04:31.955Z,52.83
2022-10-17T01:07:00.391Z,56.03
2022-10-17T01:09:28.890Z,56.43
2022-10-17T01:12:07.891Z,59.37
2022-10-17T01:14:48.682Z,56.93
2022-10-17T01:17:25.496Z,52.70
2022-10-17T01:20:13.715Z,57.80
2022-10-17T01:22:48.764Z,56.50
2022-10-17T01:25:28.842Z,55.83
2022-10-17T01:28:07.852Z,52.90
2022-10-17T01:31:02.964Z,54.83
2022-10-17T01:33:52.628Z,53.30
2022-10-17T01:36:36.629Z,54.80
2022-10-17T01:39:14.748Z,52.37
2022-10-17T01:41:47.372Z,50.73
2022-10-17T01:47:04.537Z,53.20
2022-10-17T01:49:37.115Z,54.50
2022-10-17T01:52:09.626Z,51.50
2022-10-17T01:54:43.918Z,54.07
2022-10-17T01:57:19.457Z,49.07
2022-10-17T01:59:50.874Z,54.60
2022-10-17T02:02:20.415Z,53.60
2022-10-17T02:04:52.866Z,54.13
2022-10-17T02:07:21.187Z,52.57
2022-10-17T02:09:49.431Z,51.30
2022-10-17T02:12:36.831Z,50.43
2022-10-17T02:15:22.129Z,50.63
2022-10-17T02:17:57.623Z,53.10
2022-10-17T02:20:32.146Z,49.37
2022-10-17T02:23:10.239Z,50.87
2022-10-17T02:25:42.770Z,48.40
2022-10-17T02:28:21.605Z,49.67
2022-10-17T02:30:55.606Z,50.07
2022-10-17T02:33:27.005Z,49.37
2022-10-17T02:36:01.691Z,48.13
2022-10-17T02:38:31.817Z,47.90
2022-10-17T02:41:00.972Z,47.57
2022-10-17T02:43:29.939Z,47.13
2022-10-17T02:45:58.807Z,48.47
2022-10-17T02:48:32.546Z,49.77
2022-10-17T02:51:08.933Z,46.50
2022-10-17T02:53:44.849Z,48.63
2022-10-17T02:56:19.249Z,47.80
2022-10-17T02:58:50.199Z,46.73
2022-10-17T03:01:19.797Z,48.73
2022-10-17T03:03:48.149Z,49.07
2022-10-17T03:06:17.816Z,47.47
2022-10-17T03:08:46.079Z,45.67
2022-10-17T03:11:14.324Z,46.53
2022-10-17T03:13:42.622Z,45.50
2022-10-17T03:16:10.858Z,47.67
2022-10-17T03:18:39.083Z,48.93
2022-10-17T03:21:07.810Z,48.63
2022-10-17T03:23:37.482Z,46.57
2022-10-17T03:26:06.050Z,47.83
2022-10-17T03:28:34.637Z,50.43
2022-10-17T03:31:08.333Z,49.20
2022-10-17T03:33:37.781Z,48.80
2022-10-17T03:36:09.835Z,47.30
2022-10-17T03:38:40.978Z,47.80
2022-10-17T03:41:09.854Z,46.97
2022-10-17T03:43:38.291Z,47.73
2022-10-17T03:46:07.582Z,43.93
2022-10-17T03:48:36.099Z,45.73
2022-10-17T03:51:06.425Z,44.50
2022-10-17T03:53:34.848Z,45.37
2022-10-17T03:56:13.009Z,46.67
2022-10-17T03:58:41.510Z,45.17
2022-10-17T04:01:11.982Z,45.33
2022-10-17T04:03:40.711Z,44.47
2022-10-17T04:06:12.010Z,44.83
2022-10-17T04:08:40.554Z,43.07
2022-10-17T04:11:10.342Z,43.10
2022-10-17T04:13:39.983Z,42.87
2022-10-17T04:16:10.225Z,42.53
2022-10-17T04:18:38.493Z,42.77
2022-10-17T04:21:08.407Z,41.93
2022-10-17T04:23:36.939Z,42.43
2022-10-17T04:26:06.760Z,43.97
2022-10-17T04:28:35.389Z,43.00
2022-10-17T04:31:07.309Z,44.23
2022-10-17T04:33:36.206Z,43.37
2022-10-17T04:36:06.480Z,45.30
2022-10-17T04:38:35.489Z,44.40
2022-10-17T04:41:05.919Z,43.00
2022-10-17T04:43:35.460Z,44.20
2022-10-17T04:46:07.307Z,42.10
2022-10-17T04:48:35.552Z,41.60
2022-10-17T04:51:06.273Z,43.97
2022-10-17T04:53:35.679Z,41.43
2022-10-17T04:56:08.872Z,41.97
2022-10-17T04:58:37.536Z,39.77
2022-10-17T05:01:12.461Z,40.57
2022-10-17T05:03:41.181Z,42.03
2022-10-17T05:06:11.086Z,41.97
2022-10-17T05:08:39.613Z,41.23
2022-10-17T05:11:16.251Z,40.30
2022-10-17T05:13:44.473Z,40.70
2022-10-17T05:16:14.030Z,42.63
2022-10-17T05:18:42.207Z,39.37
2022-10-17T05:21:10.526Z,43.50
2022-10-17T05:23:38.699Z,41.23
2022-10-17T05:26:07.199Z,40.27
2022-10-17T05:28:36.116Z,41.03
2022-10-17T05:31:05.139Z,41.00
2022-10-17T05:33:35.436Z,40.53
2022-10-17T05:36:04.417Z,40.13
2022-10-17T05:38:33.222Z,41.00
2022-10-17T05:41:02.537Z,39.07
2022-10-17T05:43:31.295Z,40.10
2022-10-17T05:45:59.534Z,41.70
2022-10-17T05:48:27.779Z,38.20
2022-10-17T05:51:02.070Z,38.03
2022-10-17T05:53:33.106Z,38.97
2022-10-17T05:56:03.022Z,37.97
2022-10-17T05:58:48.871Z,37.13
2022-10-17T06:01:18.524Z,40.07
2022-10-17T06:03:46.757Z,38.67
2022-10-17T06:06:17.035Z,38.23
2022-10-17T06:08:46.185Z,41.73
2022-10-17T06:11:15.037Z,42.13
2022-10-17T06:13:43.684Z,42.97
2022-10-17T06:16:12.001Z,44.73
2022-10-17T06:18:40.495Z,41.80
2022-10-17T06:21:10.864Z,41.50
2022-10-17T06:23:40.455Z,42.77
2022-10-17T06:26:08.953Z,43.50
2022-10-17T06:28:37.851Z,41.53
2022-10-17T06:31:07.987Z,42.13
2022-10-17T06:33:36.416Z,42.60
2022-10-17T06:36:05.939Z,43.37
2022-10-17T06:38:35.103Z,42.27
2022-10-17T06:41:10.972Z,39.67
2022-10-17T06:43:40.893Z,40.90
2022-10-17T06:46:09.206Z,42.97
2022-10-17T06:48:37.557Z,44.33
2022-10-17T06:51:07.440Z,42.37
2022-10-17T06:53:36.736Z,42.97
2022-10-17T06:56:08.328Z,42.03
2022-10-17T06:58:39.214Z,40.97
2022-10-17T07:03:43.747Z,40.50
2022-10-17T07:06:12.202Z,40.10
2022-10-17T07:08:43.491Z,42.03
2022-10-17T07:11:14.363Z,40.73
2022-10-17T07:13:42.694Z,40.10
2022-10-17T07:16:11.710Z,41.30
2022-10-17T07:18:40.212Z,40.90
2022-10-17T07:21:08.833Z,40.30
2022-10-17T07:23:37.666Z,40.10
2022-10-17T07:26:08.535Z,40.60
2022-10-17T07:28:39.414Z,39.27
2022-10-17T07:31:09.550Z,41.77
2022-10-17T07:33:38.034Z,41.07
2022-10-17T07:36:09.186Z,41.20
2022-10-17T07:38:38.325Z,41.07
2022-10-17T07:41:08.465Z,38.83
2022-10-17T07:43:38.942Z,38.80
2022-10-17T07:46:08.479Z,37.27
2022-10-17T07:48:36.967Z,38.40
2022-10-17T07:51:07.564Z,37.53
2022-10-17T07:53:37.071Z,36.97
2022-10-17T07:56:07.866Z,37.83
2022-10-17T07:58:38.776Z,37.80
2022-10-17T08:01:14.731Z,39.20
2022-10-17T08:03:45.957Z,38.73
2022-10-17T08:06:14.593Z,38.13
2022-10-17T08:08:43.900Z,40.43
2022-10-17T08:11:15.450Z,37.97
2022-10-17T08:13:45.649Z,37.83
2022-10-17T08:16:14.821Z,37.47
2022-10-17T08:18:44.153Z,35.87
2022-10-17T08:21:13.522Z,38.37
2022-10-17T08:23:41.932Z,36.70
2022-10-17T08:26:13.459Z,37.83
2022-10-17T08:28:42.522Z,37.97
2022-10-17T08:31:14.758Z,37.53
2022-10-17T08:33:43.571Z,38.43
2022-10-17T08:36:14.614Z,39.50
2022-10-17T08:38:43.811Z,38.97
2022-10-17T08:41:36.067Z,38.63
2022-10-17T08:44:11.786Z,39.37
2022-10-17T08:46:44.831Z,41.90
2022-10-17T08:49:17.803Z,40.77
2022-10-17T08:51:52.182Z,40.83
2022-10-17T08:54:27.248Z,41.23
2022-10-17T08:56:57.524Z,40.03
2022-10-17T08:59:29.193Z,39.87
2022-10-17T09:02:04.184Z,39.87
2022-10-17T09:05:01.824Z,39.10
2022-10-17T09:07:38.825Z,39.20
2022-10-17T09:10:15.684Z,42.83
2022-10-17T09:12:51.890Z,39.53
2022-10-17T09:15:43.164Z,39.47
2022-10-17T09:18:18.750Z,41.57
2022-10-17T09:20:53.605Z,42.60
2022-10-17T09:23:24.730Z,39.83
2022-10-17T09:25:56.068Z,43.10
2022-10-17T09:28:32.219Z,42.43
2022-10-17T09:31:04.151Z,42.63
2022-10-17T09:33:53.892Z,43.50
2022-10-17T09:36:25.874Z,41.73
2022-10-17T09:38:56.559Z,46.50
2022-10-17T09:41:50.759Z,42.63
2022-10-17T09:44:23.195Z,44.60
2022-10-17T09:47:11.698Z,45.17
2022-10-17T09:49:42.982Z,43.53
2022-10-17T09:52:16.597Z,44.00
2022-10-17T09:54:47.928Z,48.40
2022-10-17T09:57:17.715Z,46.80
2022-10-17T09:59:48.625Z,47.03
2022-10-17T10:02:21.017Z,46.27
2022-10-17T10:05:06.086Z,49.23
2022-10-17T10:07:37.102Z,47.57
2022-10-17T10:10:08.022Z,47.03
2022-10-17T10:12:39.706Z,51.07
2022-10-17T10:15:34.780Z,47.73
2022-10-17T10:18:03.426Z,51.00
2022-10-17T10:20:38.325Z,49.77
2022-10-17T10:23:15.151Z,53.23
2022-10-17T10:25:58.647Z,52.90
2022-10-17T10:28:30.967Z,49.47
2022-10-17T10:31:01.934Z,50.63
2022-10-17T10:33:31.872Z,50.10
2022-10-17T10:36:04.036Z,52.70
2022-10-17T10:38:34.292Z,50.83
2022-10-17T10:41:05.849Z,51.07
2022-10-17T10:43:37.953Z,50.90
2022-10-17T10:46:17.394Z,50.73
2022-10-17T10:48:52.940Z,46.87
2022-10-17T10:51:29.174Z,51.70
2022-10-17T10:54:05.005Z,50.83
2022-10-17T10:56:39.503Z,47.10
2022-10-17T10:59:15.258Z,47.23
2022-10-17T11:01:49.410Z,43.90
2022-10-17T11:04:29.928Z,43.47
2022-10-17T11:07:05.241Z,45.23
2022-10-17T11:09:46.185Z,44.00
2022-10-17T11:12:20.222Z,43.73
2022-10-17T11:17:37.913Z,42.40
2022-10-17T11:20:16.276Z,46.13
2022-10-17T11:22:49.331Z,47.93
2022-10-17T11:25:32.997Z,45.30
2022-10-17T11:28:05.180Z,45.77
2022-10-17T11:33:23.394Z,45.60
2022-10-17T11:35:54.465Z,45.77
2022-10-17T11:38:34.565Z,47.20
2022-10-17T11:41:04.145Z,46.50
2022-10-17T11:43:36.618Z,44.30
2022-10-17T11:46:12.853Z,43.93
2022-10-17T11:48:45.536Z,44.30
2022-10-17T11:54:11.849Z,42.80
2022-10-17T11:56:45.793Z,41.17
2022-10-17T11:59:47.160Z,39.93
2022-10-17T12:02:23.491Z,40.63
2022-10-17T12:05:01.904Z,40.53
2022-10-17T12:07:38.993Z,41.50
2022-10-17T12:10:23.395Z,40.03
2022-10-17T12:12:51.715Z,41.50
2022-10-17T12:15:31.895Z,38.53
2022-10-17T12:18:02.932Z,37.87
2022-10-17T12:20:36.471Z,39.03
2022-10-17T12:23:23.265Z,38.57
2022-10-17T12:25:56.946Z,36.43
2022-10-17T12:28:30.720Z,39.63
2022-10-17T12:31:02.220Z,38.17
2022-10-17T12:33:34.905Z,38.73
2022-10-17T12:36:46.846Z,40.17
2022-10-17T12:39:54.006Z,38.20
2022-10-17T12:42:48.707Z,37.03
2022-10-17T12:45:52.067Z,37.63
2022-10-17T12:49:03.487Z,36.53
2022-10-17T12:51:51.725Z,34.60
2022-10-17T12:54:20.095Z,33.40
2022-10-17T12:56:50.701Z,33.40
2022-10-17T12:59:25.365Z,39.37
2022-10-17T13:01:57.612Z,37.23
2022-10-17T13:04:26.929Z,35.17
2022-10-17T13:06:58.618Z,35.87
2022-10-17T13:09:30.274Z,37.13
2022-10-17T13:12:00.320Z,36.93
2022-10-17T13:14:31.328Z,35.03
2022-10-17T13:17:01.728Z,33.00
2022-10-17T13:19:33.459Z,34.17
2022-10-17T13:22:06.852Z,34.47
2022-10-17T13:24:37.793Z,31.87
2022-10-17T13:27:08.307Z,30.60
2022-10-17T13:29:45.783Z,34.27
2022-10-17T13:32:14.247Z,33.57
2022-10-17T13:34:44.256Z,35.80
2022-10-17T13:37:15.715Z,34.60
2022-10-17T13:39:56.048Z,34.67
2022-10-17T13:42:29.790Z,32.77
2022-10-17T13:45:00.789Z,36.33
2022-10-17T13:47:33.475Z,33.50
2022-10-17T13:50:02.207Z,32.70
2022-10-17T13:52:33.880Z,33.60
2022-10-17T13:55:16.575Z,33.50
2022-10-17T13:57:45.958Z,32.13
2022-10-17T14:00:21.990Z,28.87
2022-10-17T14:02:50.768Z,30.60
2022-10-17T14:05:23.413Z,31.77
2022-10-17T14:10:44.432Z,26.67
2022-10-17T14:13:23.296Z,28.73
2022-10-17T14:15:54.056Z,29.00
2022-10-17T14:18:26.005Z,31.10
2022-10-17T14:21:32.142Z,31.33
2022-10-17T14:23:44.969Z,30.13
2022-10-17T14:26:16.652Z,31.43
2022-10-17T14:28:46.979Z,27.83
2022-10-17T14:31:25.928Z,29.13
2022-10-17T14:33:55.470Z,28.47
2022-10-17T14:36:37.111Z,26.47
2022-10-17T14:39:11.834Z,26.63
2022-10-17T14:41:46.509Z,29.40
2022-10-17T14:44:22.003Z,28.03
2022-10-17T14:46:55.364Z,28.00
2022-10-17T14:49:38.049Z,29.17
2022-10-17T14:52:27.532Z,28.40
2022-10-17T14:54:55.853Z,29.63
2022-10-17T14:57:31.249Z,28.40
2022-10-17T14:59:59.711Z,30.50
2022-10-17T15:02:31.228Z,27.07
2022-10-17T15:04:59.866Z,29.47
2022-10-17T15:07:29.785Z,28.70
2022-10-17T15:09:58.095Z,27.47
2022-10-17T15:12:27.317Z,26.13
2022-10-17T15:14:56.160Z,30.77
2022-10-17T15:17:26.831Z,29.17
2022-10-17T15:19:56.857Z,29.13
2022-10-17T15:22:25.615Z,28.40
2022-10-17T15:24:53.802Z,34.13
2022-10-17T15:27:23.982Z,34.83
2022-10-17T15:29:53.108Z,35.53
2022-10-17T15:32:21.382Z,40.20
2022-10-17T15:34:49.695Z,40.30
2022-10-17T15:37:22.433Z,47.73
2022-10-17T15:39:53.652Z,48.37
2022-10-17T15:42:23.245Z,49.50
2022-10-17T15:44:51.553Z,48.73
2022-10-17T15:47:28.275Z,47.73
2022-10-17T15:49:56.899Z,47.03
2022-10-17T15:52:26.853Z,49.93
2022-10-17T15:54:57.282Z,49.07
2022-10-17T15:57:30.694Z,48.80
2022-10-17T16:00:00.880Z,46.53
2022-10-17T16:02:29.495Z,50.60
2022-10-17T16:04:57.830Z,47.73
2022-10-17T16:07:27.858Z,49.87
2022-10-17T16:09:59.520Z,49.93
2022-10-17T16:12:31.273Z,49.53
2022-10-17T16:14:59.586Z,50.97
2022-10-17T16:17:27.942Z,53.70
2022-10-17T16:19:56.447Z,50.30
2022-10-17T16:22:32.426Z,53.10
2022-10-17T16:25:09.431Z,50.17
2022-10-17T16:27:38.547Z,54.37
2022-10-17T16:30:09.103Z,51.80
2022-10-17T16:32:37.516Z,49.43
2022-10-17T16:35:06.295Z,48.73
2022-10-17T16:37:36.140Z,54.60
2022-10-17T16:40:06.049Z,54.23
2022-10-17T16:42:34.287Z,54.27
2022-10-17T16:45:02.711Z,54.53
2022-10-17T16:47:30.971Z,52.87
2022-10-17T16:49:59.363Z,56.43
2022-10-17T16:52:29.979Z,51.07
2022-10-17T16:54:59.915Z,52.93
2022-10-17T16:57:29.294Z,52.23
2022-10-17T16:59:57.880Z,52.77
2022-10-17T17:02:26.519Z,55.17
2022-10-17T17:04:57.078Z,54.13
2022-10-17T17:07:25.371Z,55.53
2022-10-17T17:09:53.810Z,53.87
2022-10-17T17:12:23.643Z,55.53
2022-10-17T17:14:51.855Z,56.07
2022-10-17T17:17:30.685Z,55.20
2022-10-17T17:20:09.190Z,58.03
2022-10-17T17:22:37.465Z,59.67
2022-10-17T17:25:06.366Z,58.23
2022-10-17T17:27:35.957Z,54.27
2022-10-17T17:30:04.379Z,58.00
2022-10-17T17:32:34.200Z,57.60
2022-10-17T17:35:02.442Z,56.07
2022-10-17T17:37:30.872Z,56.67
2022-10-17T17:39:59.294Z,57.43
2022-10-17T17:42:28.240Z,54.43
2022-10-17T17:44:57.973Z,61.10
2022-10-17T17:47:29.574Z,57.67
2022-10-17T17:49:58.255Z,59.47
2022-10-17T17:52:26.862Z,59.67
2022-10-17T17:54:55.167Z,55.97
2022-10-17T17:57:23.384Z,54.63
2022-10-17T17:59:52.299Z,59.17
2022-10-17T18:02:22.895Z,60.10
2022-10-17T18:04:52.746Z,61.70
2022-10-17T18:07:26.768Z,61.07
2022-10-17T18:09:56.205Z,59.03
2022-10-17T18:12:25.510Z,60.20
2022-10-17T18:14:53.818Z,57.27
2022-10-17T18:17:23.671Z,61.20
2022-10-17T18:19:52.027Z,63.70
2022-10-17T18:22:20.292Z,62.30
2022-10-17T18:24:48.519Z,61.90
2022-10-17T18:27:16.878Z,64.83
2022-10-17T18:29:46.536Z,66.37
2022-10-17T18:32:15.134Z,64.37
2022-10-17T18:34:44.830Z,65.83
2022-10-17T18:37:13.095Z,68.53
2022-10-17T18:39:41.593Z,68.27
2022-10-17T18:42:11.336Z,66.60
2022-10-17T18:44:39.536Z,69.80
2022-10-17T18:47:07.783Z,67.07
2022-10-17T18:49:36.666Z,68.60
2022-10-17T18:52:06.673Z,67.60
2022-10-17T18:54:35.074Z,68.03
2022-10-17T18:57:03.364Z,65.40
2022-10-17T18:59:31.651Z,59.83
2022-10-17T19:02:00.004Z,61.27
2022-10-17T19:04:28.356Z,61.80
2022-10-17T19:06:56.658Z,68.37
2022-10-17T19:09:26.317Z,65.27
2022-10-17T19:11:54.704Z,60.30
2022-10-17T19:14:22.991Z,59.67
2022-10-17T19:16:52.083Z,64.27
2022-10-17T19:19:23.104Z,62.10
2022-10-17T19:21:51.996Z,69.40
2022-10-17T19:24:22.456Z,62.13
2022-10-17T19:26:54.239Z,61.37
2022-10-17T19:29:28.465Z,60.40
2022-10-17T19:31:57.023Z,64.30
2022-10-17T19:34:25.504Z,65.03
2022-10-17T19:36:54.025Z,62.77
2022-10-17T19:39:24.843Z,62.53
2022-10-17T19:41:54.785Z,64.33
2022-10-17T19:44:23.157Z,64.90
2022-10-17T19:46:51.417Z,58.23
2022-10-17T19:49:19.725Z,67.43
2022-10-17T19:51:48.848Z,63.47
2022-10-17T19:54:19.246Z,65.20
2022-10-17T19:56:48.158Z,66.37
2022-10-17T19:59:19.284Z,66.43
2022-10-17T20:01:51.304Z,70.93
2022-10-17T20:04:19.691Z,69.70
2022-10-17T20:06:47.929Z,65.67
2022-10-17T20:09:17.564Z,71.90
2022-10-17T20:11:46.247Z,70.27
2022-10-17T20:14:14.540Z,71.03
2022-10-17T20:16:44.919Z,72.17
2022-10-17T20:19:14.404Z,75.10
2022-10-17T20:21:44.083Z,75.43
2022-10-17T20:24:15.141Z,72.27
2022-10-17T20:26:43.727Z,75.27
2022-10-17T20:29:15.037Z,70.20
2022-10-17T20:31:46.392Z,76.97
2022-10-17T20:34:16.125Z,70.97
2022-10-17T20:36:44.744Z,74.63
2022-10-17T20:39:14.639Z,74.13
2022-10-17T20:41:43.287Z,79.30
2022-10-17T20:44:12.177Z,77.87
2022-10-17T20:46:48.695Z,79.63
2022-10-17T20:49:27.275Z,82.20
2022-10-17T20:51:55.493Z,77.50
2022-10-17T20:54:23.864Z,77.50
2022-10-17T20:56:52.325Z,74.90
2022-10-17T20:59:20.781Z,77.37
2022-10-17T21:01:49.639Z,75.30
2022-10-17T21:07:07.747Z,71.93
2022-10-17T21:09:35.967Z,71.83
2022-10-17T21:12:05.434Z,80.00
2022-10-17T21:14:36.491Z,79.10
2022-10-17T21:17:05.754Z,77.93
2022-10-17T21:19:34.508Z,77.77
2022-10-17T21:22:02.802Z,78.93
2022-10-17T21:24:32.872Z,76.67
2022-10-17T21:27:01.186Z,80.37
2022-10-17T21:29:29.451Z,82.27
2022-10-17T21:31:57.698Z,79.47
2022-10-17T21:34:26.165Z,80.93
2022-10-17T21:36:54.591Z,73.90
2022-10-17T21:39:24.269Z,79.60
2022-10-17T21:41:54.902Z,83.07
2022-10-17T21:44:24.856Z,77.07
2022-10-17T21:46:53.672Z,80.57
2022-10-17T21:49:24.676Z,79.10
2022-10-17T21:51:53.713Z,76.00
2022-10-17T21:54:23.647Z,71.57
2022-10-17T21:56:53.693Z,68.47
2022-10-17T21:59:21.942Z,69.03
2022-10-17T22:01:50.229Z,70.00
2022-10-17T22:04:20.404Z,62.33
2022-10-17T22:06:52.384Z,59.83
2022-10-17T22:09:22.929Z,61.50
2022-10-17T22:11:54.367Z,59.53
2022-10-17T22:14:24.188Z,58.53
2022-10-17T22:16:53.115Z,55.10
2022-10-17T22:19:25.436Z,58.10
2022-10-17T22:21:54.275Z,54.97
2022-10-17T22:24:23.659Z,54.13
2022-10-17T22:26:54.124Z,54.20
2022-10-17T22:29:22.310Z,56.07
2022-10-17T22:31:50.580Z,49.27
2022-10-17T22:34:19.503Z,49.60
2022-10-17T22:36:49.098Z,49.40
2022-10-17T22:39:17.441Z,48.83
2022-10-17T22:41:45.720Z,51.83
2022-10-17T22:44:15.576Z,49.03
2022-10-17T22:46:43.869Z,53.77
2022-10-17T22:49:12.487Z,60.83
2022-10-17T22:51:40.813Z,59.20
2022-10-17T22:54:09.024Z,58.03
2022-10-17T22:56:37.332Z,46.77
2022-10-17T22:59:08.406Z,47.53
2022-10-17T23:01:38.299Z,45.03
2022-10-17T23:04:08.852Z,44.23
2022-10-17T23:06:37.068Z,46.07
2022-10-17T23:09:07.550Z,50.27
2022-10-17T23:11:35.759Z,49.77
2022-10-17T23:14:04.218Z,50.50
2022-10-17T23:16:32.470Z,51.17
2022-10-17T23:19:02.245Z,48.03
2022-10-17T23:21:30.516Z,53.53
2022-10-17T23:23:58.839Z,62.13
2022-10-17T23:26:27.107Z,64.90
2022-10-17T23:28:55.929Z,65.97
2022-10-17T23:31:24.300Z,70.10
2022-10-17T23:33:52.571Z,67.63
2022-10-17T23:36:22.341Z,64.33
2022-10-17T23:38:52.691Z,67.63
2022-10-17T23:41:23.317Z,62.33
2022-10-17T23:43:51.687Z,68.00
2022-10-17T23:46:19.973Z,64.53
2022-10-17T23:48:48.170Z,65.17
2022-10-17T23:51:16.591Z,63.33
2022-10-17T23:53:46.185Z,64.40
2022-10-17T23:56:14.533Z,61.77
2022-10-17T23:58:42.908Z,61.33
